Terminal Aerodrome Forecast
Issued by NWS

Home | Current Version | Previous Version | Text Only | Print | Product List | Glossary On
Versions: 1 2 3 4 5 6 7 8 9 10 11 12
670
FTUS46 KSTO 202321
TAFSCK
TAF
KSCK 202321Z 2100/2124 32010KT P6SM SCT200
     FM210600 33004KT P6SM FEW100
     FM211600 32007KT P6SM SKC=

USA.gov is the U.S. government's official web portal to all federal, state and local government web resources and services.